Time;durP1;ratioP1;P1;durP2;ratioP2;P2;SDS_P1;SDS_P2;PMS_P1;PMS_P2;Temp;Humidity;BMP_temperature;BMP_pressure;BME280_temperature;BME280_humidity;BME280_pressure;Samples;Min_cycle;Max_cycle;Signal;HPM_P1;HPM_P2
2022/07/26 00:01:27;;;;;;;12.20;3.53;;;18.80;99.90;;;;;;5048934;28;20436;-90
2022/07/26 00:03:53;;;;;;;12.25;3.20;;;18.80;99.90;;;;;;5012094;28;20040;-90
2022/07/26 00:06:19;;;;;;;13.80;3.95;;;18.80;99.90;;;;;;5029872;28;20052;-89
2022/07/26 00:08:46;;;;;;;15.68;3.92;;;18.80;99.90;;;;;;5048160;28;20048;-90
2022/07/26 00:11:11;;;;;;;13.43;3.88;;;18.80;99.90;;;;;;5047903;28;20076;-90
2022/07/26 00:13:37;;;;;;;13.70;3.95;;;18.80;99.90;;;;;;5026350;28;20470;-89
2022/07/26 00:16:03;;;;;;;12.23;3.50;;;18.80;99.90;;;;;;5047122;28;20068;-88
2022/07/26 00:18:29;;;;;;;12.65;3.30;;;18.80;99.90;;;;;;5028235;28;20095;-89
2022/07/26 00:20:54;;;;;;;16.60;4.00;;;18.80;99.90;;;;;;5029594;28;20065;-89
2022/07/26 00:23:20;;;;;;;13.38;3.50;;;18.80;99.90;;;;;;5030117;28;20045;-90
2022/07/26 00:25:46;;;;;;;13.57;4.20;;;18.80;99.90;;;;;;5046053;28;20092;-89
2022/07/26 00:28:12;;;;;;;15.48;4.13;;;18.80;99.90;;;;;;5049068;28;20044;-91
2022/07/26 00:30:38;;;;;;;12.80;3.70;;;18.80;99.90;;;;;;5030203;28;20478;-89
2022/07/26 00:33:04;;;;;;;14.45;4.00;;;18.80;99.90;;;;;;5011893;28;20045;-90
2022/07/26 00:35:30;;;;;;;12.65;3.90;;;18.80;99.90;;;;;;5048631;28;20115;-89
2022/07/26 00:37:56;;;;;;;15.75;4.30;;;18.80;99.90;;;;;;5024086;28;20144;-90
2022/07/26 00:40:21;;;;;;;13.48;3.83;;;18.70;99.90;;;;;;5047251;28;20082;-89
2022/07/26 00:42:47;;;;;;;14.95;3.85;;;18.70;99.90;;;;;;5029534;28;20393;-89
2022/07/26 00:45:14;;;;;;;13.32;3.70;;;18.70;99.90;;;;;;5047877;28;20435;-89
2022/07/26 00:47:40;;;;;;;11.18;3.55;;;18.70;99.90;;;;;;5005331;28;20079;-90
2022/07/26 00:50:09;;;;;;;11.63;3.70;;;18.70;99.90;;;;;;5046796;28;20432;-88
2022/07/26 00:52:35;;;;;;;16.08;3.80;;;18.70;99.90;;;;;;5027913;28;20162;-89
2022/07/26 00:55:01;;;;;;;17.00;5.00;;;18.60;99.90;;;;;;5029673;28;20076;-89
2022/07/26 00:57:27;;;;;;;14.82;4.05;;;18.60;99.90;;;;;;5013148;28;20084;-89
2022/07/26 00:59:53;;;;;;;15.93;4.30;;;18.60;99.90;;;;;;5046363;28;20048;-89
2022/07/26 01:02:19;;;;;;;16.30;4.05;;;18.60;99.90;;;;;;5029841;28;20481;-89
2022/07/26 01:04:45;;;;;;;14.50;4.82;;;18.50;99.90;;;;;;5042834;28;20144;-89
2022/07/26 01:07:12;;;;;;;14.02;4.50;;;18.50;99.90;;;;;;5029304;28;20102;-89
2022/07/26 01:09:39;;;;;;;15.63;4.18;;;18.40;99.90;;;;;;5025261;28;20076;-89
2022/07/26 01:12:05;;;;;;;13.73;4.13;;;18.50;99.90;;;;;;5046226;28;20331;-89
2022/07/26 01:14:30;;;;;;;14.77;4.43;;;18.40;99.90;;;;;;5043235;28;20569;-89
2022/07/26 01:16:56;;;;;;;13.85;4.60;;;18.40;99.90;;;;;;5046210;28;20048;-89
2022/07/26 01:19:22;;;;;;;15.20;4.30;;;18.40;99.90;;;;;;5027229;28;20551;-89
2022/07/26 01:21:50;;;;;;;15.30;4.35;;;18.30;99.90;;;;;;5045525;28;20456;-90
2022/07/26 01:24:16;;;;;;;17.75;4.78;;;18.30;99.90;;;;;;5027988;28;20048;-89
2022/07/26 01:26:42;;;;;;;13.27;4.85;;;18.30;99.90;;;;;;5027312;28;20076;-90
2022/07/26 01:29:07;;;;;;;18.35;5.65;;;18.30;99.90;;;;;;5029159;28;20045;-89
2022/07/26 01:31:33;;;;;;;13.35;4.95;;;18.30;99.90;;;;;;5012668;28;20048;-90
2022/07/26 01:33:59;;;;;;;14.23;4.25;;;18.30;99.90;;;;;;5029300;28;20429;-90
2022/07/26 01:36:24;;;;;;;16.15;4.22;;;18.30;99.90;;;;;;5010838;28;20947;-89
2022/07/26 01:38:50;;;;;;;18.02;4.93;;;18.30;99.90;;;;;;5011338;28;20482;-90
2022/07/26 01:41:16;;;;;;;14.70;4.82;;;18.30;99.90;;;;;;5028267;28;20045;-89
2022/07/26 01:43:41;;;;;;;12.40;4.20;;;18.30;99.90;;;;;;5015155;28;20497;-90
2022/07/26 01:46:08;;;;;;;16.27;4.88;;;18.10;99.90;;;;;;5010741;28;20543;-89
2022/07/26 01:48:34;;;;;;;14.13;4.78;;;18.20;99.90;;;;;;5046436;28;20045;-89
2022/07/26 01:51:00;;;;;;;14.77;4.45;;;18.20;99.90;;;;;;5027961;28;20052;-90
2022/07/26 01:53:26;;;;;;;12.70;4.18;;;18.20;99.90;;;;;;5041787;28;20519;-91
2022/07/26 01:55:51;;;;;;;14.77;4.20;;;18.10;99.90;;;;;;5025967;28;20041;-88
2022/07/26 01:58:17;;;;;;;13.23;4.57;;;18.00;99.90;;;;;;5028660;28;20482;-90
2022/07/26 02:00:43;;;;;;;12.38;4.15;;;18.10;99.90;;;;;;5028026;28;20041;-90
2022/07/26 02:03:09;;;;;;;11.75;4.13;;;18.10;99.90;;;;;;5046396;28;20397;-89
2022/07/26 02:05:34;;;;;;;14.10;4.45;;;18.10;99.90;;;;;;5045291;28;20061;-89
2022/07/26 02:08:00;;;;;;;13.68;4.30;;;18.20;99.90;;;;;;5025192;28;20095;-89
2022/07/26 02:10:59;;;;;;;13.43;4.32;;;18.20;99.90;;;;;;5028451;28;20103;-90
2022/07/26 02:13:14;;;;;;;14.00;4.63;;;18.10;99.90;;;;;;5027107;28;20052;-89
2022/07/26 02:15:40;;;;;;;12.30;4.30;;;18.10;99.90;;;;;;5024447;28;20383;-90
2022/07/26 02:18:06;;;;;;;16.67;5.20;;;18.10;99.90;;;;;;5041161;28;20040;-89
2022/07/26 02:20:32;;;;;;;12.25;4.60;;;18.10;99.90;;;;;;5027391;28;20060;-89
2022/07/26 02:23:00;;;;;;;13.95;4.38;;;18.10;99.90;;;;;;5010441;28;20103;-89
2022/07/26 02:25:25;;;;;;;15.10;5.07;;;18.20;99.90;;;;;;5027331;28;20057;-89
2022/07/26 02:27:51;;;;;;;14.43;4.50;;;18.10;99.90;;;;;;5028066;28;20393;-89
2022/07/26 02:30:17;;;;;;;13.32;4.80;;;18.10;99.90;;;;;;5030936;28;20175;-89
2022/07/26 02:32:42;;;;;;;12.50;4.15;;;18.10;99.90;;;;;;5025062;28;20398;-90
2022/07/26 02:35:09;;;;;;;13.02;4.88;;;18.10;99.90;;;;;;5049865;28;20399;-88
2022/07/26 02:37:34;;;;;;;13.20;4.55;;;18.10;99.90;;;;;;5015408;28;20067;-88
2022/07/26 02:40:01;;;;;;;13.18;4.60;;;18.20;99.90;;;;;;5030542;28;20044;-89
2022/07/26 02:42:27;;;;;;;12.82;4.72;;;18.10;99.90;;;;;;5030761;28;20045;-89
2022/07/26 02:44:52;;;;;;;14.73;5.13;;;18.10;99.90;;;;;;5029324;28;20413;-88
2022/07/26 02:47:18;;;;;;;13.15;5.10;;;18.10;99.90;;;;;;5013897;28;20607;-88
2022/07/26 02:49:44;;;;;;;12.10;4.50;;;18.10;99.90;;;;;;5051336;28;20049;-90
2022/07/26 02:52:10;;;;;;;14.27;4.95;;;18.10;99.90;;;;;;5031622;28;20136;-89
2022/07/26 02:54:35;;;;;;;14.45;5.43;;;18.20;99.90;;;;;;5030552;28;20076;-89
2022/07/26 02:57:01;;;;;;;13.23;5.40;;;18.10;99.90;;;;;;5050038;28;20051;-90
2022/07/26 02:59:26;;;;;;;14.27;5.50;;;18.10;99.90;;;;;;5048765;28;20079;-90
2022/07/26 03:01:52;;;;;;;12.88;4.97;;;18.10;99.90;;;;;;5015132;28;20045;-89
2022/07/26 03:04:18;;;;;;;12.98;4.75;;;18.10;99.90;;;;;;5031943;28;20044;-90
2022/07/26 03:06:43;;;;;;;13.48;4.85;;;18.10;99.90;;;;;;5046247;28;20380;-90
2022/07/26 03:09:09;;;;;;;13.50;4.68;;;18.10;99.90;;;;;;5049387;28;20555;-90
2022/07/26 03:11:34;;;;;;;12.25;4.55;;;18.10;99.90;;;;;;5032658;28;20137;-90
2022/07/26 03:14:00;;;;;;;11.68;4.88;;;18.10;99.90;;;;;;5032611;28;20041;-90
2022/07/26 03:16:25;;;;;;;11.57;4.43;;;18.00;99.90;;;;;;5014812;28;20082;-90
2022/07/26 03:18:51;;;;;;;12.05;4.43;;;18.10;99.90;;;;;;5032140;28;20073;-90
2022/07/26 03:21:17;;;;;;;10.40;4.43;;;18.10;99.90;;;;;;5038546;28;20049;-91
2022/07/26 03:23:42;;;;;;;10.15;4.40;;;18.10;99.90;;;;;;5013620;28;20045;-90
2022/07/26 03:26:08;;;;;;;12.63;4.88;;;18.10;99.90;;;;;;5017616;28;20045;-90
2022/07/26 03:28:34;;;;;;;11.38;3.97;;;18.10;99.90;;;;;;5025668;28;20045;-90
2022/07/26 03:31:00;;;;;;;11.52;4.22;;;18.00;99.90;;;;;;5029415;28;20053;-90
2022/07/26 03:33:25;;;;;;;12.30;4.75;;;18.10;99.90;;;;;;5000830;28;20090;-90
2022/07/26 03:35:51;;;;;;;11.65;4.60;;;18.10;99.90;;;;;;5003157;28;20087;-91
2022/07/26 03:38:16;;;;;;;11.32;4.50;;;18.10;99.90;;;;;;5018126;28;20032;-91
2022/07/26 03:40:42;;;;;;;10.43;3.67;;;18.10;99.90;;;;;;5027082;28;20045;-90
2022/07/26 03:43:08;;;;;;;11.63;3.42;;;18.10;99.90;;;;;;5004685;28;20482;-89
2022/07/26 03:45:33;;;;;;;7.57;3.20;;;18.00;99.90;;;;;;5020805;28;20052;-92
2022/07/26 03:47:59;;;;;;;8.13;2.85;;;18.10;99.90;;;;;;5011221;28;20122;-90
2022/07/26 03:50:24;;;;;;;8.50;2.90;;;18.00;99.90;;;;;;5043698;28;20119;-91
2022/07/26 03:52:50;;;;;;;9.00;2.80;;;18.00;99.90;;;;;;5003529;28;20042;-90
2022/07/26 03:58:00;;;;;;;9.55;2.75;;;18.00;99.90;;;;;;5020307;28;20398;-89
2022/07/26 04:00:25;;;;;;;9.15;2.70;;;18.00;99.90;;;;;;5000981;28;20041;-89
2022/07/26 04:02:51;;;;;;;8.98;2.78;;;18.00;99.90;;;;;;5038992;28;20510;-88
2022/07/26 04:05:17;;;;;;;10.70;2.60;;;18.00;99.90;;;;;;5037809;28;20052;-87
2022/07/26 04:07:44;;;;;;;9.30;2.90;;;18.00;99.90;;;;;;5029797;28;20187;-89
2022/07/26 04:10:10;;;;;;;8.15;2.80;;;17.90;99.90;;;;;;5023963;28;20056;-89
2022/07/26 04:12:36;;;;;;;7.30;2.50;;;17.90;99.90;;;;;;5047574;28;20064;-88
2022/07/26 04:15:03;;;;;;;7.50;2.78;;;17.90;99.90;;;;;;4998918;28;20041;-88
2022/07/26 04:17:36;;;;;;;10.63;2.78;;;17.90;99.90;;;;;;5016742;28;20049;-88
2022/07/26 04:20:01;;;;;;;10.90;2.97;;;17.90;99.90;;;;;;5010499;28;20450;-89
2022/07/26 04:22:27;;;;;;;9.77;2.70;;;17.90;99.90;;;;;;5047817;28;20064;-89
2022/07/26 04:24:52;;;;;;;8.63;3.00;;;17.90;99.90;;;;;;5048431;28;20473;-92
2022/07/26 04:27:18;;;;;;;10.18;2.72;;;17.90;99.90;;;;;;5035231;28;20056;-87
2022/07/26 04:29:43;;;;;;;8.68;2.92;;;17.80;99.90;;;;;;5047622;28;20127;-90
2022/07/26 04:32:09;;;;;;;8.88;2.60;;;17.80;99.90;;;;;;5028861;28;20052;-88
2022/07/26 04:34:34;;;;;;;9.25;2.78;;;17.90;99.90;;;;;;5045064;28;20387;-89
2022/07/26 04:37:00;;;;;;;9.68;3.30;;;17.80;99.90;;;;;;5028907;28;20064;-90
2022/07/26 04:39:25;;;;;;;8.10;2.63;;;17.90;99.90;;;;;;5013237;28;20041;-90
2022/07/26 04:41:51;;;;;;;7.72;2.35;;;17.80;99.90;;;;;;5030384;28;20075;-90
2022/07/26 04:44:17;;;;;;;6.97;2.28;;;17.80;99.90;;;;;;5032970;28;20079;-90
2022/07/26 04:46:42;;;;;;;9.50;2.70;;;17.80;99.90;;;;;;5042808;28;20048;-89
2022/07/26 04:49:08;;;;;;;8.13;2.30;;;17.80;99.90;;;;;;5030385;28;20045;-89
2022/07/26 04:51:33;;;;;;;7.95;2.20;;;17.80;99.90;;;;;;5047577;28;20045;-88
2022/07/26 04:53:59;;;;;;;8.73;2.35;;;17.80;99.90;;;;;;5011556;28;20128;-90
2022/07/26 04:56:24;;;;;;;9.20;2.13;;;17.80;99.90;;;;;;5031248;28;20044;-89
2022/07/26 04:58:50;;;;;;;7.18;1.80;;;17.80;99.90;;;;;;5030856;28;20037;-90
2022/07/26 05:01:15;;;;;;;11.02;2.72;;;17.80;99.90;;;;;;5029553;28;20405;-90
2022/07/26 05:03:41;;;;;;;8.63;2.15;;;17.80;99.90;;;;;;5026101;28;20056;-90
2022/07/26 05:06:07;;;;;;;6.05;1.65;;;17.80;99.90;;;;;;5046893;28;20052;-90
2022/07/26 05:08:32;;;;;;;7.72;1.85;;;17.80;99.90;;;;;;5029753;28;20045;-91
2022/07/26 05:10:58;;;;;;;7.55;1.60;;;17.70;99.90;;;;;;5044411;28;20048;-92
2022/07/26 05:13:24;;;;;;;7.60;1.70;;;17.80;99.90;;;;;;5048419;28;20044;-92
2022/07/26 05:15:49;;;;;;;6.47;1.95;;;17.80;99.90;;;;;;5028323;28;20414;-91
2022/07/26 05:18:16;;;;;;;8.60;1.73;;;17.80;99.90;;;;;;5048276;28;20517;-93
2022/07/26 05:20:41;;;;;;;7.50;1.80;;;17.80;99.90;;;;;;5016297;28;20510;-90
2022/07/26 05:23:07;;;;;;;6.63;2.03;;;17.90;99.90;;;;;;5026537;28;20041;-90
2022/07/26 05:25:36;;;;;;;8.60;2.13;;;17.90;99.90;;;;;;5010160;28;20092;-90
2022/07/26 05:28:02;;;;;;;7.72;1.70;;;17.80;99.90;;;;;;4994982;28;20413;-91
2022/07/26 05:30:28;;;;;;;8.10;1.65;;;17.80;99.90;;;;;;5012998;28;20060;-90
2022/07/26 05:32:54;;;;;;;7.78;1.80;;;17.80;99.90;;;;;;5027074;28;20045;-92
2022/07/26 05:35:20;;;;;;;5.30;1.38;;;17.80;99.90;;;;;;5026859;28;20045;-93
2022/07/26 05:37:45;;;;;;;6.03;1.50;;;17.80;99.90;;;;;;5010580;28;20044;-90
2022/07/26 05:40:12;;;;;;;5.28;1.25;;;17.80;99.90;;;;;;5027313;28;20128;-92
2022/07/26 05:42:37;;;;;;;8.50;1.70;;;17.80;99.90;;;;;;5024696;28;20041;-93
2022/07/26 05:45:05;;;;;;;7.43;1.40;;;17.80;99.90;;;;;;5025515;28;20037;-91
2022/07/26 05:47:31;;;;;;;6.22;1.42;;;17.80;99.90;;;;;;5018661;28;20062;-94
2022/07/26 05:49:56;;;;;;;6.40;1.10;;;17.70;99.90;;;;;;5027882;28;20038;-93
2022/07/26 05:52:22;;;;;;;7.35;1.13;;;17.60;99.90;;;;;;5025776;28;20491;-94
2022/07/26 05:54:48;;;;;;;6.72;1.30;;;17.70;99.90;;;;;;5010556;28;20069;-92
2022/07/26 05:57:13;;;;;;;4.47;1.10;;;17.70;99.90;;;;;;5028874;28;20621;-91
2022/07/26 05:59:39;;;;;;;7.13;1.45;;;17.70;99.90;;;;;;4991739;28;20083;-93
2022/07/26 06:02:07;;;;;;;5.88;1.30;;;17.70;99.90;;;;;;5009259;28;20103;-91
2022/07/26 06:04:35;;;;;;;5.47;1.30;;;17.80;99.90;;;;;;5028779;28;20072;-94
2022/07/26 06:07:00;;;;;;;6.47;1.27;;;17.90;99.90;;;;;;5008328;28;20487;-92
2022/07/26 06:09:26;;;;;;;6.57;1.20;;;17.90;99.90;;;;;;5010300;28;20178;-89
2022/07/26 06:11:52;;;;;;;8.38;1.58;;;17.90;99.90;;;;;;5007619;28;20453;-91
2022/07/26 06:14:19;;;;;;;6.63;1.52;;;17.90;99.90;;;;;;5022821;28;20076;-92
2022/07/26 06:16:46;;;;;;;6.13;1.17;;;17.90;99.90;;;;;;5011327;28;20517;-91
2022/07/26 06:19:12;;;;;;;5.80;1.20;;;17.90;99.90;;;;;;5027472;28;20502;-91
2022/07/26 06:21:38;;;;;;;5.28;1.17;;;17.90;99.90;;;;;;5048066;28;20451;-91
2022/07/26 06:24:04;;;;;;;8.48;1.40;;;17.90;99.90;;;;;;5030649;28;20079;-90
2022/07/26 06:26:29;;;;;;;8.07;1.35;;;17.90;99.90;;;;;;5048698;28;20045;-91
2022/07/26 06:28:55;;;;;;;5.03;1.10;;;17.80;99.90;;;;;;5021191;28;20473;-89
2022/07/26 06:31:21;;;;;;;5.90;1.00;;;17.60;99.90;;;;;;5049862;28;20017;-90
2022/07/26 06:33:47;;;;;;;5.38;1.00;;;17.50;99.90;;;;;;5031593;28;20449;-92
2022/07/26 06:36:13;;;;;;;5.32;1.00;;;17.50;99.90;;;;;;5031635;28;20076;-94
2022/07/26 06:38:39;;;;;;;5.25;1.08;;;17.40;99.90;;;;;;5008961;28;20367;-92
2022/07/26 06:41:04;;;;;;;4.30;1.17;;;17.40;99.90;;;;;;5045091;28;20044;-93
2022/07/26 06:43:30;;;;;;;4.63;1.02;;;17.40;99.90;;;;;;5026900;28;20401;-93
2022/07/26 06:45:55;;;;;;;7.22;1.33;;;17.50;99.90;;;;;;5029556;28;20567;-91
2022/07/26 06:48:21;;;;;;;6.85;1.40;;;17.50;99.90;;;;;;5029043;28;20033;-91
2022/07/26 06:50:47;;;;;;;6.28;1.25;;;17.50;99.90;;;;;;5010304;28;20067;-91
2022/07/26 06:53:12;;;;;;;8.30;1.30;;;17.60;99.90;;;;;;5010503;28;20037;-92
2022/07/26 06:55:39;;;;;;;7.28;1.42;;;17.80;99.90;;;;;;5012570;28;20068;-91
2022/07/26 06:58:04;;;;;;;4.82;1.20;;;17.70;99.90;;;;;;5028775;28;20178;-89
2022/07/26 07:00:30;;;;;;;5.93;1.08;;;17.70;99.90;;;;;;5048757;28;20436;-91
2022/07/26 07:02:55;;;;;;;7.60;1.00;;;17.70;99.90;;;;;;5032544;28;20041;-91
2022/07/26 07:05:21;;;;;;;4.78;1.00;;;17.70;99.90;;;;;;5032421;28;20397;-90
2022/07/26 07:07:47;;;;;;;6.20;1.05;;;17.60;99.90;;;;;;5029685;28;20041;-90
2022/07/26 07:10:12;;;;;;;6.30;1.00;;;17.70;99.90;;;;;;5014942;28;20610;-91
2022/07/26 07:12:38;;;;;;;6.50;1.10;;;17.70;99.90;;;;;;5046384;28;20445;-93
2022/07/26 07:15:05;;;;;;;3.85;0.90;;;17.80;99.90;;;;;;5048545;28;20423;-88
2022/07/26 07:17:30;;;;;;;7.43;1.00;;;17.90;99.90;;;;;;5032575;28;20045;-95
2022/07/26 07:19:56;;;;;;;5.10;0.90;;;17.90;99.90;;;;;;5015132;28;20071;-92
2022/07/26 07:22:22;;;;;;;6.20;1.20;;;18.00;99.90;;;;;;5035974;28;20078;-93
2022/07/26 07:24:47;;;;;;;7.70;1.20;;;18.00;99.90;;;;;;5020461;28;20052;-94
2022/07/26 07:27:13;;;;;;;4.53;1.08;;;18.20;99.90;;;;;;5044686;28;20041;-95
2022/07/26 07:29:39;;;;;;;6.55;1.02;;;18.30;99.90;;;;;;5063239;28;20037;-93
2022/07/26 07:32:05;;;;;;;4.35;1.00;;;18.20;99.90;;;;;;5039441;28;20221;-94
2022/07/26 07:34:31;;;;;;;4.35;0.80;;;18.30;99.90;;;;;;5041523;28;20041;-96
2022/07/26 07:36:56;;;;;;;5.15;1.38;;;18.30;99.90;;;;;;5051932;28;20041;-93
2022/07/26 07:39:22;;;;;;;6.38;0.85;;;18.40;99.90;;;;;;5019079;28;20053;-92
2022/07/26 07:41:48;;;;;;;6.78;1.20;;;18.50;99.90;;;;;;5035084;28;20063;-91
2022/07/26 07:44:14;;;;;;;6.10;1.10;;;18.60;99.90;;;;;;5031013;28;20118;-92
2022/07/26 07:46:39;;;;;;;5.43;1.10;;;18.60;99.90;;;;;;5034859;28;20409;-91
2022/07/26 07:49:05;;;;;;;5.18;1.00;;;18.60;99.90;;;;;;5032473;28;20128;-91
2022/07/26 07:51:32;;;;;;;5.75;1.20;;;18.40;99.90;;;;;;5019360;28;20045;-95
2022/07/26 07:53:58;;;;;;;5.65;1.08;;;18.40;99.90;;;;;;5036480;28;20053;-95
2022/07/26 07:56:24;;;;;;;6.47;1.25;;;18.20;99.90;;;;;;5020896;28;20141;-92
2022/07/26 07:58:50;;;;;;;5.05;0.85;;;18.20;99.90;;;;;;5020647;28;20490;-94
2022/07/26 08:01:15;;;;;;;7.63;1.80;;;18.20;99.90;;;;;;5058721;28;20049;-95
2022/07/26 08:03:41;;;;;;;5.38;1.20;;;18.20;99.90;;;;;;5033383;28;20036;-95
2022/07/26 08:06:08;;;;;;;4.75;0.90;;;18.20;99.90;;;;;;5066029;28;20048;-96
2022/07/26 08:08:35;;;;;;;3.30;0.80;;;18.10;99.90;;;;;;5073745;28;20040;-96
2022/07/26 08:11:01;;;;;;;5.63;0.80;;;18.10;99.90;;;;;;5047629;28;20052;-96
2022/07/26 08:13:27;;;;;;;4.38;0.80;;;18.10;99.90;;;;;;5029157;28;20037;-96
2022/07/26 08:15:54;;;;;;;4.28;0.90;;;18.10;99.90;;;;;;5025580;28;20053;-95
2022/07/26 08:18:22;;;;;;;6.60;1.02;;;18.20;99.90;;;;;;5045745;28;20124;-96
2022/07/26 08:20:48;;;;;;;4.07;0.90;;;18.30;99.90;;;;;;5048781;28;20058;-95
2022/07/26 08:23:14;;;;;;;4.50;0.88;;;18.50;99.90;;;;;;5022313;28;20060;-96
2022/07/26 08:25:40;;;;;;;6.15;1.00;;;18.70;99.90;;;;;;5035099;28;20049;-94
2022/07/26 08:28:05;;;;;;;7.07;1.23;;;19.00;99.90;;;;;;5024309;28;20033;-95
2022/07/26 08:30:35;;;;;;;6.13;1.10;;;19.10;99.90;;;;;;5048703;28;20025;-96
2022/07/26 08:33:04;;;;;;;6.05;1.10;;;19.20;99.90;;;;;;5043788;28;20048;-96
2022/07/26 08:35:30;;;;;;;6.63;1.20;;;19.20;99.90;;;;;;5016084;28;20056;-92
2022/07/26 08:37:56;;;;;;;4.50;0.80;;;19.20;99.90;;;;;;5035974;28;20093;-94
2022/07/26 08:40:22;;;;;;;5.32;0.90;;;19.20;99.90;;;;;;5040483;28;20029;-94
2022/07/26 08:42:54;;;;;;;5.10;1.23;;;19.10;99.90;;;;;;5022314;28;20045;-95
2022/07/26 08:45:24;;;;;;;6.30;1.02;;;19.10;99.90;;;;;;5045124;28;20436;-95
2022/07/26 08:47:50;;;;;;;6.25;1.13;;;19.30;99.90;;;;;;5012075;28;20045;-95
2022/07/26 08:50:16;;;;;;;5.30;1.05;;;19.40;99.90;;;;;;5029436;28;20455;-95
2022/07/26 08:52:42;;;;;;;4.78;1.00;;;19.60;99.90;;;;;;5036105;28;20049;-93
2022/07/26 08:55:10;;;;;;;5.80;1.58;;;19.60;99.90;;;;;;5031898;28;20041;-95
2022/07/26 08:57:35;;;;;;;7.00;1.30;;;19.50;99.90;;;;;;5018838;28;20103;-96
2022/07/26 09:00:23;;;;;;;7.30;1.25;;;19.50;99.90;;;;;;5020536;28;20025;-96
2022/07/26 09:02:50;;;;;;;7.10;1.10;;;19.50;99.90;;;;;;5031858;28;20044;-91
2022/07/26 09:05:18;;;;;;;7.40;1.50;;;19.40;99.90;;;;;;5051250;28;20048;-96
2022/07/26 09:07:44;;;;;;;7.55;1.23;;;19.10;99.90;;;;;;5040386;28;20049;-94
2022/07/26 09:10:15;;;;;;;7.03;1.17;;;18.80;99.90;;;;;;5009779;28;20048;-95
2022/07/26 09:12:42;;;;;;;5.35;1.20;;;18.60;99.90;;;;;;4998367;28;20061;-94
2022/07/26 09:15:27;;;;;;;5.72;1.02;;;18.40;99.90;;;;;;5032013;28;20090;-95
2022/07/26 09:17:56;;;;;;;5.88;1.10;;;18.40;99.90;;;;;;5002426;28;20049;-95
2022/07/26 09:20:31;;;;;;;6.53;1.30;;;18.40;99.90;;;;;;4985090;28;1063083;-93
2022/07/26 09:23:05;;;;;;;7.05;1.30;;;18.50;99.90;;;;;;5007759;28;20050;-94
2022/07/26 09:25:36;;;;;;;7.55;1.20;;;18.50;99.90;;;;;;5008355;28;20406;-95
2022/07/26 09:28:03;;;;;;;8.68;1.50;;;18.50;99.90;;;;;;5017613;28;20056;-94
2022/07/26 09:30:30;;;;;;;7.20;1.40;;;18.80;99.90;;;;;;5031321;28;20064;-93
2022/07/26 09:33:05;;;;;;;7.13;1.20;;;18.90;99.90;;;;;;4997837;28;20046;-94
2022/07/26 09:35:38;;;;;;;8.25;1.40;;;19.00;99.90;;;;;;5023599;28;20169;-94
2022/07/26 09:38:14;;;;;;;6.00;1.45;;;19.20;99.90;;;;;;5010040;28;20480;-90
2022/07/26 09:40:41;;;;;;;6.32;1.40;;;19.20;99.90;;;;;;5041151;28;20118;-95
2022/07/26 09:43:07;;;;;;;7.32;1.30;;;19.30;99.90;;;;;;5025969;28;20060;-92
2022/07/26 09:45:34;;;;;;;5.80;1.20;;;19.30;99.90;;;;;;5022620;28;20037;-91
2022/07/26 09:48:01;;;;;;;5.72;1.10;;;19.30;99.90;;;;;;5033034;28;20037;-91
2022/07/26 09:50:29;;;;;;;7.25;1.42;;;19.20;99.90;;;;;;5019608;28;20245;-96
2022/07/26 09:53:11;;;;;;;7.70;1.17;;;19.10;99.90;;;;;;5028465;28;20450;-95
2022/07/26 09:55:54;;;;;;;8.82;1.55;;;19.00;99.90;;;;;;5009170;28;20053;-94
2022/07/26 09:58:21;;;;;;;6.85;1.10;;;19.00;99.90;;;;;;5019173;28;20051;-93
2022/07/26 10:00:47;;;;;;;5.15;1.20;;;19.10;99.90;;;;;;5031511;28;20045;-92
2022/07/26 10:03:14;;;;;;;9.73;1.90;;;19.20;99.90;;;;;;5012655;28;20049;-93
2022/07/26 10:05:43;;;;;;;5.78;1.33;;;19.10;99.90;;;;;;4998431;28;20402;-96
2022/07/26 10:08:09;;;;;;;6.80;1.30;;;19.20;99.90;;;;;;5003737;28;20044;-92
2022/07/26 10:11:04;;;;;;;6.15;1.35;;;19.20;99.90;;;;;;5025424;28;20067;-90
2022/07/26 10:13:31;;;;;;;5.90;1.45;;;19.20;99.90;;;;;;5002955;28;20049;-94
2022/07/26 10:15:57;;;;;;;6.57;1.63;;;19.20;99.90;;;;;;5024843;28;20414;-90
2022/07/26 10:19:03;;;;;;;7.88;1.45;;;19.10;99.90;;;;;;5025826;28;20041;-95
2022/07/26 10:21:29;;;;;;;8.48;1.90;;;19.10;99.90;;;;;;4902785;29;20055;-95
2022/07/26 10:23:59;;;;;;;8.52;1.50;;;19.00;99.90;;;;;;4918181;29;20059;-94
2022/07/26 10:26:36;;;;;;;8.17;1.90;;;19.00;99.90;;;;;;4934597;29;20075;-95
2022/07/26 10:29:25;;;;;;;7.47;1.20;;;19.10;99.90;;;;;;4934680;29;20040;-95
2022/07/26 10:31:59;;;;;;;7.18;1.58;;;19.10;99.90;;;;;;4904397;29;20071;-88
2022/07/26 10:34:39;;;;;;;7.18;1.50;;;19.20;99.90;;;;;;4919277;29;20043;-95
2022/07/26 10:37:11;;;;;;;7.07;1.52;;;19.30;99.90;;;;;;4916649;29;20095;-95
2022/07/26 10:39:38;;;;;;;8.15;1.50;;;19.40;99.90;;;;;;4905020;29;20522;-95
2022/07/26 10:42:09;;;;;;;10.57;1.92;;;19.30;99.90;;;;;;4934567;29;20429;-96
2022/07/26 10:44:46;;;;;;;7.25;1.80;;;19.20;99.90;;;;;;4927501;29;20670;-94
2022/07/26 10:47:30;;;;;;;9.02;2.00;;;19.20;99.90;;;;;;4913484;29;20144;-96
2022/07/26 10:49:57;;;;;;;8.75;1.90;;;19.00;99.90;;;;;;4938045;29;20059;-94
2022/07/26 10:52:28;;;;;;;11.30;1.80;;;18.80;99.90;;;;;;4924552;29;20445;-95
2022/07/26 10:54:59;;;;;;;9.45;2.25;;;18.50;99.90;;;;;;4940669;29;20046;-96
2022/07/26 10:57:28;;;;;;;;;;;18.30;99.90;;;;;;4997073;28;20055;-94
2022/07/26 10:59:56;;;;;;;12.05;2.72;;;18.10;99.90;;;;;;5052080;28;19947;-92
2022/07/26 11:02:31;;;;;;;12.07;2.63;;;18.30;99.90;;;;;;5033177;28;20045;-95
2022/07/26 11:05:13;;;;;;;12.80;2.70;;;18.50;99.90;;;;;;5031664;28;20044;-95
2022/07/26 11:07:57;;;;;;;12.00;2.75;;;18.60;99.90;;;;;;5048138;28;20049;-95
2022/07/26 11:10:37;;;;;;;11.90;2.78;;;18.80;99.90;;;;;;5032836;28;20041;-94
2022/07/26 11:13:22;;;;;;;9.77;1.90;;;19.00;99.90;;;;;;5023476;28;20052;-94
2022/07/26 11:15:51;;;;;;;11.55;2.80;;;19.10;99.90;;;;;;5025770;28;20037;-94
2022/07/26 11:18:37;;;;;;;11.00;2.15;;;19.20;99.90;;;;;;5041171;28;20322;-94
2022/07/26 11:21:14;;;;;;;9.07;2.13;;;19.30;99.90;;;;;;5021452;28;20058;-93
2022/07/26 11:23:45;;;;;;;10.85;2.28;;;19.40;99.90;;;;;;5017850;28;20053;-95
2022/07/26 11:26:14;;;;;;;8.70;2.00;;;19.50;99.90;;;;;;5003839;28;20037;-96
2022/07/26 11:28:49;;;;;;;12.18;2.13;;;19.50;99.90;;;;;;5002279;28;20041;-91
2022/07/26 11:31:16;;;;;;;8.60;2.00;;;19.50;99.90;;;;;;5015604;28;20048;-95
2022/07/26 11:33:44;;;;;;;10.23;2.25;;;19.40;99.90;;;;;;5037870;28;20037;-94
2022/07/26 11:36:10;;;;;;;11.15;2.50;;;19.30;99.90;;;;;;5018170;28;20041;-94
2022/07/26 11:38:53;;;;;;;9.05;1.95;;;19.40;99.90;;;;;;5013896;28;20076;-95
2022/07/26 11:41:21;;;;;;;11.07;2.10;;;19.40;99.90;;;;;;5016656;28;20124;-93
2022/07/26 11:43:47;;;;;;;10.45;2.05;;;19.40;99.90;;;;;;5000097;28;20124;-95
2022/07/26 11:46:13;;;;;;;11.55;2.95;;;19.40;99.90;;;;;;4991728;28;20045;-95
2022/07/26 11:48:47;;;;;;;6.90;1.63;;;19.50;99.90;;;;;;5017116;28;20044;-93
2022/07/26 11:51:15;;;;;;;10.45;1.83;;;19.50;99.90;;;;;;5004779;28;20046;-93
2022/07/26 11:53:41;;;;;;;9.07;1.80;;;19.60;99.90;;;;;;5008716;28;20184;-96
2022/07/26 11:56:15;;;;;;;8.32;1.60;;;19.60;99.90;;;;;;5018415;28;20048;-94
2022/07/26 11:58:42;;;;;;;8.27;1.70;;;19.60;99.90;;;;;;5001352;28;20046;-96
2022/07/26 12:01:09;;;;;;;8.63;1.70;;;19.60;99.90;;;;;;5013081;28;20128;-92
2022/07/26 12:03:35;;;;;;;10.13;1.80;;;19.80;99.90;;;;;;4998848;28;20050;-93
2022/07/26 12:06:04;;;;;;;7.78;1.70;;;19.90;99.90;;;;;;4997428;28;20234;-93
2022/07/26 12:08:40;;;;;;;7.57;1.80;;;20.00;99.90;;;;;;5035919;28;20045;-94
2022/07/26 12:11:06;;;;;;;7.13;1.85;;;20.00;99.90;;;;;;4999444;28;20503;-94
2022/07/26 12:13:31;;;;;;;6.40;1.55;;;20.10;99.90;;;;;;5000982;28;20494;-95
2022/07/26 12:15:57;;;;;;;8.70;1.77;;;20.20;99.90;;;;;;5016413;28;20051;-94
2022/07/26 12:18:26;;;;;;;6.95;1.55;;;20.20;99.90;;;;;;5014177;28;20038;-93
2022/07/26 12:21:15;;;;;;;6.85;1.63;;;20.20;99.90;;;;;;5040964;28;20080;-95
2022/07/26 12:23:47;;;;;;;6.45;1.30;;;20.30;99.90;;;;;;5026989;28;20136;-93
2022/07/26 12:26:23;;;;;;;7.47;1.58;;;20.40;99.90;;;;;;5026116;28;20045;-94
2022/07/26 12:28:48;;;;;;;7.13;1.83;;;20.40;99.90;;;;;;5033720;28;20418;-93
2022/07/26 12:31:22;;;;;;;6.65;1.50;;;20.40;99.90;;;;;;5025060;28;20049;-92
2022/07/26 12:33:49;;;;;;;5.93;1.20;;;20.40;99.90;;;;;;5025184;28;20376;-94
2022/07/26 12:36:19;;;;;;;7.47;1.60;;;20.30;99.90;;;;;;4995008;28;20068;-93
2022/07/26 12:38:45;;;;;;;7.03;1.33;;;20.30;99.90;;;;;;4999051;28;20173;-95
2022/07/26 12:41:11;;;;;;;7.93;1.58;;;20.20;99.90;;;;;;4992959;28;20489;-92
2022/07/26 12:43:40;;;;;;;8.60;1.65;;;20.20;99.90;;;;;;5007497;28;20045;-93
2022/07/26 12:46:06;;;;;;;7.13;1.52;;;20.30;99.70;;;;;;5024204;28;20052;-94
2022/07/26 12:48:31;;;;;;;6.60;1.42;;;20.30;99.90;;;;;;5000618;28;20473;-92